createdAt,value
2023-06-17T00:00:16.088Z,100.00
2023-06-17T00:02:45.149Z,100.00
2023-06-17T00:05:12.966Z,100.00
2023-06-17T00:07:42.437Z,100.00
2023-06-17T00:10:11.744Z,100.00
2023-06-17T00:12:40.192Z,100.00
2023-06-17T00:15:09.012Z,100.00
2023-06-17T00:17:36.759Z,100.00
2023-06-17T00:20:11.299Z,100.00
2023-06-17T00:22:40.342Z,100.00
2023-06-17T00:25:09.076Z,100.00
2023-06-17T00:27:36.791Z,100.00
2023-06-17T00:30:04.838Z,100.00
2023-06-17T00:32:32.741Z,100.00
2023-06-17T00:35:00.494Z,100.00
2023-06-17T00:37:29.519Z,100.00
2023-06-17T00:39:57.241Z,100.00
2023-06-17T00:42:24.912Z,100.00
2023-06-17T00:44:52.822Z,100.00
2023-06-17T00:47:20.994Z,100.00
2023-06-17T00:49:49.492Z,100.00
2023-06-17T00:52:39.290Z,100.00
2023-06-17T00:55:09.854Z,100.00
2023-06-17T00:57:38.488Z,100.00
2023-06-17T01:00:17.037Z,100.00
2023-06-17T01:02:46.732Z,100.00
2023-06-17T01:05:17.688Z,100.00
2023-06-17T01:08:01.220Z,100.00
2023-06-17T01:10:36.992Z,100.00
2023-06-17T01:13:06.561Z,100.00
2023-06-17T01:15:35.633Z,100.00
2023-06-17T01:18:06.200Z,100.00
2023-06-17T01:20:35.059Z,100.00
2023-06-17T01:23:06.586Z,100.00
2023-06-17T01:25:36.566Z,100.00
2023-06-17T01:28:17.616Z,100.00
2023-06-17T01:30:46.341Z,100.00
2023-06-17T01:33:15.302Z,100.00
2023-06-17T01:35:51.218Z,100.00
2023-06-17T01:38:23.517Z,100.00
2023-06-17T01:40:58.652Z,100.00
2023-06-17T01:43:28.676Z,100.00
2023-06-17T01:45:57.619Z,100.00
2023-06-17T01:48:25.658Z,100.00
2023-06-17T01:50:53.482Z,100.00
2023-06-17T01:53:23.220Z,100.00
2023-06-17T01:55:52.952Z,100.00
2023-06-17T01:58:20.764Z,100.00
2023-06-17T02:00:48.541Z,100.00
2023-06-17T02:03:17.103Z,100.00
2023-06-17T02:05:45.892Z,100.00
2023-06-17T02:08:15.959Z,100.00
2023-06-17T02:10:43.811Z,100.00
2023-06-17T02:13:12.799Z,100.00
2023-06-17T02:15:43.599Z,100.00
2023-06-17T02:18:13.513Z,100.00
2023-06-17T02:20:41.249Z,100.00
2023-06-17T02:23:09.119Z,100.00
2023-06-17T02:25:37.902Z,100.00
2023-06-17T02:28:05.973Z,100.00
2023-06-17T02:30:35.024Z,100.00
2023-06-17T02:33:03.006Z,100.00
2023-06-17T02:35:30.711Z,100.00
2023-06-17T02:37:59.133Z,100.00
2023-06-17T02:40:26.815Z,100.00
2023-06-17T02:42:54.595Z,100.00
2023-06-17T02:45:23.149Z,100.00
2023-06-17T02:47:52.329Z,100.00
2023-06-17T02:50:22.856Z,100.00
2023-06-17T02:52:57.235Z,100.00
2023-06-17T02:55:26.729Z,100.00
2023-06-17T02:57:54.844Z,100.00
2023-06-17T03:00:23.264Z,100.00
2023-06-17T03:02:52.822Z,100.00
2023-06-17T03:05:20.690Z,100.00
2023-06-17T03:07:49.043Z,100.00
2023-06-17T03:10:19.257Z,100.00
2023-06-17T03:12:47.242Z,100.00
2023-06-17T03:15:18.547Z,100.00
2023-06-17T03:17:46.820Z,100.00
2023-06-17T03:20:16.217Z,100.00
2023-06-17T03:22:44.974Z,100.00
2023-06-17T03:25:14.548Z,100.00
2023-06-17T03:27:42.330Z,100.00
2023-06-17T03:30:10.786Z,100.00
2023-06-17T03:32:38.516Z,100.00
2023-06-17T03:35:07.358Z,100.00
2023-06-17T03:37:36.493Z,100.00
2023-06-17T03:40:04.995Z,100.00
2023-06-17T03:42:32.770Z,100.00
2023-06-17T03:45:00.560Z,100.00
2023-06-17T03:47:29.532Z,100.00
2023-06-17T03:49:57.333Z,100.00
2023-06-17T03:52:25.000Z,100.00
2023-06-17T03:54:55.066Z,100.00
2023-06-17T03:57:22.812Z,100.00
2023-06-17T03:59:50.487Z,100.00
2023-06-17T04:02:18.217Z,100.00
2023-06-17T04:04:45.930Z,100.00
2023-06-17T04:07:13.718Z,100.00
2023-06-17T04:09:48.225Z,100.00
2023-06-17T04:12:30.402Z,100.00
2023-06-17T04:14:58.028Z,100.00
2023-06-17T04:17:25.828Z,100.00
2023-06-17T04:19:56.097Z,100.00
2023-06-17T04:22:23.787Z,100.00
2023-06-17T04:24:57.092Z,100.00
2023-06-17T04:27:24.964Z,100.00
2023-06-17T04:29:57.322Z,100.00
2023-06-17T04:32:25.871Z,100.00
2023-06-17T04:34:53.625Z,100.00
2023-06-17T04:37:21.670Z,100.00
2023-06-17T04:39:49.753Z,100.00
2023-06-17T04:42:18.245Z,100.00
2023-06-17T04:44:50.124Z,100.00
2023-06-17T04:47:20.938Z,100.00
2023-06-17T04:49:49.054Z,100.00
2023-06-17T04:52:20.336Z,100.00
2023-06-17T04:54:48.793Z,100.00
2023-06-17T04:57:17.469Z,100.00
2023-06-17T04:59:45.176Z,100.00
2023-06-17T05:02:12.911Z,100.00
2023-06-17T05:04:42.075Z,100.00
2023-06-17T05:07:10.007Z,100.00
2023-06-17T05:09:37.731Z,100.00
2023-06-17T05:12:06.063Z,100.00
2023-06-17T05:14:33.677Z,100.00
2023-06-17T05:17:01.478Z,100.00
2023-06-17T05:19:29.131Z,100.00
2023-06-17T05:21:58.203Z,100.00
2023-06-17T05:24:26.003Z,100.00
2023-06-17T05:26:54.361Z,100.00
2023-06-17T05:29:22.225Z,100.00
2023-06-17T05:31:50.117Z,100.00
2023-06-17T05:34:17.896Z,100.00
2023-06-17T05:36:45.669Z,100.00
2023-06-17T05:39:14.931Z,100.00
2023-06-17T05:41:42.710Z,100.00
2023-06-17T05:44:10.788Z,100.00
2023-06-17T05:46:39.702Z,100.00
2023-06-17T05:49:07.649Z,100.00
2023-06-17T05:51:35.640Z,100.00
2023-06-17T05:54:03.365Z,100.00
2023-06-17T05:56:32.712Z,100.00
2023-06-17T05:59:00.386Z,100.00
2023-06-17T06:01:28.134Z,100.00
2023-06-17T06:03:55.906Z,100.00
2023-06-17T06:06:23.766Z,100.00
2023-06-17T06:08:51.402Z,100.00
2023-06-17T06:11:19.494Z,100.00
2023-06-17T06:13:48.675Z,100.00
2023-06-17T06:16:16.459Z,100.00
2023-06-17T06:18:44.188Z,100.00
2023-06-17T06:21:12.119Z,100.00
2023-06-17T06:23:39.797Z,100.00
2023-06-17T06:26:07.446Z,100.00
2023-06-17T06:28:35.086Z,100.00
2023-06-17T06:31:04.406Z,100.00
2023-06-17T06:33:32.384Z,100.00
2023-06-17T06:36:00.132Z,100.00
2023-06-17T06:38:28.239Z,100.00
2023-06-17T06:40:55.907Z,100.00
2023-06-17T06:43:24.448Z,100.00
2023-06-17T06:45:52.666Z,100.00
2023-06-17T06:48:22.077Z,100.00
2023-06-17T06:50:49.768Z,100.00
2023-06-17T06:53:17.596Z,100.00
2023-06-17T06:55:45.783Z,100.00
2023-06-17T06:58:13.524Z,100.00
2023-06-17T07:00:41.417Z,100.00
2023-06-17T07:03:09.140Z,100.00
2023-06-17T07:05:38.203Z,100.00
2023-06-17T07:08:06.056Z,98.97
2023-06-17T07:10:34.684Z,93.13
2023-06-17T07:13:02.476Z,93.08
2023-06-17T07:15:30.165Z,89.07
2023-06-17T07:17:57.891Z,84.88
2023-06-17T07:20:25.665Z,70.19
2023-06-17T07:22:55.056Z,75.93
2023-06-17T07:25:22.734Z,64.21
2023-06-17T07:27:51.985Z,69.75
2023-06-17T07:30:20.068Z,57.57
2023-06-17T07:32:48.368Z,57.05
2023-06-17T07:35:16.219Z,63.71
2023-06-17T07:37:43.895Z,58.78
2023-06-17T07:40:17.607Z,55.50
2023-06-17T07:42:47.479Z,58.15
2023-06-17T07:45:15.180Z,55.28
2023-06-17T07:47:43.169Z,61.50
2023-06-17T07:50:11.676Z,57.42
2023-06-17T07:52:39.596Z,59.63
2023-06-17T07:55:09.519Z,61.04
2023-06-17T07:57:38.538Z,55.33
2023-06-17T08:00:10.281Z,55.32
2023-06-17T08:02:38.230Z,54.79
2023-06-17T08:05:06.703Z,55.66
2023-06-17T08:07:34.917Z,56.64
2023-06-17T08:10:02.776Z,58.43
2023-06-17T08:12:30.552Z,58.58
2023-06-17T08:14:59.612Z,58.14
2023-06-17T08:17:27.398Z,58.87
2023-06-17T08:19:55.194Z,58.80
2023-06-17T08:22:23.142Z,59.22
2023-06-17T08:24:50.860Z,59.58
2023-06-17T08:27:18.842Z,59.62
2023-06-17T08:29:46.489Z,62.95
2023-06-17T08:32:15.659Z,62.61
2023-06-17T08:34:43.456Z,65.78
2023-06-17T08:37:11.273Z,66.08
2023-06-17T08:39:40.852Z,65.91
2023-06-17T08:42:10.287Z,62.28
2023-06-17T08:44:43.412Z,62.48
2023-06-17T08:47:15.589Z,61.57
2023-06-17T08:49:45.403Z,60.43
2023-06-17T08:52:14.940Z,60.30
2023-06-17T08:54:43.627Z,61.26
2023-06-17T08:57:13.682Z,60.77
2023-06-17T08:59:42.561Z,60.73
2023-06-17T09:02:11.704Z,60.25
2023-06-17T09:04:39.532Z,62.43
2023-06-17T09:07:10.481Z,58.39
2023-06-17T09:09:39.297Z,58.29
2023-06-17T09:12:09.415Z,56.36
2023-06-17T09:14:38.529Z,57.70
2023-06-17T09:17:06.247Z,59.20
2023-06-17T09:19:34.448Z,60.76
2023-06-17T09:22:08.296Z,61.22
2023-06-17T09:24:36.283Z,63.85
2023-06-17T09:27:04.322Z,66.95
2023-06-17T09:29:34.199Z,68.07
2023-06-17T09:32:05.010Z,65.03
2023-06-17T09:34:32.723Z,65.30
2023-06-17T09:37:02.382Z,64.62
2023-06-17T09:39:33.280Z,62.77
2023-06-17T09:42:09.837Z,63.87
2023-06-17T09:44:39.021Z,66.05
2023-06-17T09:47:09.001Z,66.04
2023-06-17T09:49:37.837Z,64.62
2023-06-17T09:52:09.468Z,64.64
2023-06-17T09:54:42.059Z,61.42
2023-06-17T09:57:14.725Z,61.73
2023-06-17T09:59:45.140Z,62.77
2023-06-17T10:02:12.960Z,60.82
2023-06-17T10:04:40.789Z,60.27
2023-06-17T10:07:09.206Z,60.20
2023-06-17T10:09:38.765Z,60.40
2023-06-17T10:12:08.892Z,58.69
2023-06-17T10:14:37.485Z,57.32
2023-06-17T10:17:10.666Z,57.59
2023-06-17T10:19:41.026Z,59.30
2023-06-17T10:22:14.250Z,59.00
2023-06-17T10:24:44.256Z,58.77
2023-06-17T10:27:12.191Z,57.29
2023-06-17T10:29:43.621Z,56.77
2023-06-17T10:32:19.940Z,53.54
2023-06-17T10:35:10.656Z,53.02
2023-06-17T10:37:42.967Z,52.07
2023-06-17T10:40:26.946Z,51.44
2023-06-17T10:42:56.895Z,54.80
2023-06-17T10:45:24.714Z,53.11
2023-06-17T10:47:52.515Z,53.32
2023-06-17T10:50:24.005Z,53.40
2023-06-17T10:52:56.858Z,50.90
2023-06-17T10:55:25.899Z,50.52
2023-06-17T10:57:53.552Z,48.93
2023-06-17T11:00:22.722Z,49.81
2023-06-17T11:02:50.961Z,49.61
2023-06-17T11:05:19.368Z,45.16
2023-06-17T11:07:47.005Z,46.53
2023-06-17T11:10:15.310Z,47.41
2023-06-17T11:12:48.817Z,48.17
2023-06-17T11:15:18.158Z,48.69
2023-06-17T11:17:45.912Z,45.29
2023-06-17T11:20:14.102Z,47.34
2023-06-17T11:22:42.099Z,46.97
2023-06-17T11:25:11.684Z,49.22
2023-06-17T11:27:41.934Z,48.42
2023-06-17T11:30:14.048Z,47.35
2023-06-17T11:32:42.861Z,47.04
2023-06-17T11:35:11.257Z,46.91
2023-06-17T11:37:39.432Z,46.45
2023-06-17T11:40:12.195Z,48.76
2023-06-17T11:42:40.366Z,45.93
2023-06-17T11:45:09.337Z,44.42
2023-06-17T11:47:38.553Z,45.25
2023-06-17T11:50:08.149Z,44.14
2023-06-17T11:52:36.892Z,43.21
2023-06-17T11:55:06.275Z,40.34
2023-06-17T11:57:34.716Z,42.10
2023-06-17T12:00:06.695Z,43.55
2023-06-17T12:02:36.279Z,42.46
2023-06-17T12:05:06.845Z,42.70
2023-06-17T12:07:39.663Z,42.29
2023-06-17T12:10:08.874Z,43.35
2023-06-17T12:12:38.902Z,45.08
2023-06-17T12:15:21.038Z,43.45
2023-06-17T12:17:52.564Z,43.51
2023-06-17T12:20:22.815Z,42.16
2023-06-17T12:22:53.088Z,40.15
2023-06-17T12:25:21.526Z,42.10
2023-06-17T12:27:51.473Z,43.29
2023-06-17T12:30:19.712Z,43.77
2023-06-17T12:32:47.790Z,43.36
2023-06-17T12:35:15.970Z,41.58
2023-06-17T12:37:45.374Z,41.57
2023-06-17T12:40:13.793Z,42.86
2023-06-17T12:42:42.066Z,41.36
2023-06-17T12:45:10.715Z,43.16
2023-06-17T12:47:38.870Z,44.16
2023-06-17T12:50:07.813Z,42.39
2023-06-17T12:52:35.895Z,41.73
2023-06-17T12:55:18.027Z,40.74
2023-06-17T12:57:45.874Z,40.48
2023-06-17T13:00:15.869Z,40.50
2023-06-17T13:02:43.854Z,41.19
2023-06-17T13:05:11.773Z,41.77
2023-06-17T13:07:39.437Z,39.73
2023-06-17T13:10:09.237Z,40.98
2023-06-17T13:12:37.145Z,42.16
2023-06-17T13:15:05.460Z,50.65
2023-06-17T13:17:33.774Z,72.79
2023-06-17T13:20:02.464Z,79.25
2023-06-17T13:22:32.228Z,89.34
2023-06-17T13:25:00.239Z,90.66
2023-06-17T13:27:30.166Z,89.97
2023-06-17T13:29:58.697Z,90.09
2023-06-17T13:32:26.969Z,95.42
2023-06-17T13:34:55.600Z,100.00
2023-06-17T13:37:23.397Z,100.00
2023-06-17T13:39:51.413Z,100.00
2023-06-17T13:42:19.061Z,100.00
2023-06-17T13:44:48.393Z,100.00
2023-06-17T13:47:16.236Z,100.00
2023-06-17T13:49:44.170Z,97.24
2023-06-17T13:52:13.024Z,93.29
2023-06-17T13:54:41.075Z,88.66
2023-06-17T13:57:09.047Z,87.87
2023-06-17T13:59:37.641Z,86.37
2023-06-17T14:02:07.992Z,86.13
2023-06-17T14:04:35.798Z,85.30
2023-06-17T14:07:03.634Z,87.18
2023-06-17T14:09:31.620Z,85.37
2023-06-17T14:11:59.291Z,80.04
2023-06-17T14:14:27.275Z,79.26
2023-06-17T14:16:57.592Z,79.75
2023-06-17T14:19:26.750Z,81.34
2023-06-17T14:21:56.484Z,78.40
2023-06-17T14:24:24.386Z,81.38
2023-06-17T14:27:20.902Z,76.28
2023-06-17T14:29:49.572Z,76.93
2023-06-17T14:32:18.379Z,78.85
2023-06-17T14:34:48.042Z,76.24
2023-06-17T14:37:15.789Z,78.36
2023-06-17T14:39:43.489Z,75.44
2023-06-17T14:42:12.848Z,75.46
2023-06-17T14:44:40.635Z,78.59
2023-06-17T14:47:08.732Z,81.48
2023-06-17T14:49:36.502Z,75.23
2023-06-17T14:52:05.951Z,72.59
2023-06-17T14:54:34.400Z,69.93
2023-06-17T14:57:02.444Z,70.57
2023-06-17T14:59:30.118Z,68.08
2023-06-17T15:01:57.789Z,65.28
2023-06-17T15:04:25.479Z,62.72
2023-06-17T15:06:53.443Z,64.83
2023-06-17T15:09:29.493Z,64.38
2023-06-17T15:11:58.532Z,66.04
2023-06-17T15:14:27.821Z,62.92
2023-06-17T15:16:55.916Z,66.11
2023-06-17T15:19:23.783Z,63.10
2023-06-17T15:21:52.093Z,61.55
2023-06-17T15:24:20.054Z,64.84
2023-06-17T15:26:49.239Z,65.65
2023-06-17T15:29:17.264Z,64.99
2023-06-17T15:31:45.317Z,72.43
2023-06-17T15:34:13.203Z,88.09
2023-06-17T15:36:41.607Z,100.00
2023-06-17T15:39:20.771Z,100.00
2023-06-17T15:41:52.505Z,100.00
2023-06-17T15:44:21.880Z,100.00
2023-06-17T15:46:50.586Z,100.00
2023-06-17T15:49:19.101Z,100.00
2023-06-17T15:51:46.742Z,100.00
2023-06-17T15:54:14.582Z,100.00
2023-06-17T15:56:46.901Z,100.00
2023-06-17T15:59:16.025Z,100.00
2023-06-17T16:01:43.756Z,100.00
2023-06-17T16:04:36.633Z,100.00
2023-06-17T16:07:06.759Z,100.00
2023-06-17T16:09:36.084Z,100.00
2023-06-17T16:12:04.246Z,100.00
2023-06-17T16:14:36.293Z,100.00
2023-06-17T16:17:06.698Z,100.00
2023-06-17T16:19:36.626Z,100.00
2023-06-17T16:22:05.727Z,100.00
2023-06-17T16:24:33.926Z,100.00
2023-06-17T16:27:01.802Z,100.00
2023-06-17T16:29:29.593Z,100.00
2023-06-17T16:31:58.993Z,100.00
2023-06-17T16:34:26.674Z,100.00
2023-06-17T16:36:54.453Z,100.00
2023-06-17T16:39:22.261Z,100.00
2023-06-17T16:41:50.253Z,100.00
2023-06-17T16:44:18.186Z,100.00
2023-06-17T16:46:47.677Z,100.00
2023-06-17T16:49:17.015Z,100.00
2023-06-17T16:51:44.933Z,100.00
2023-06-17T16:54:13.301Z,100.00
2023-06-17T16:56:41.079Z,100.00
2023-06-17T16:59:08.859Z,100.00
2023-06-17T17:01:36.689Z,100.00
2023-06-17T17:04:11.405Z,100.00
2023-06-17T17:06:41.068Z,100.00
2023-06-17T17:09:09.006Z,100.00
2023-06-17T17:11:36.899Z,100.00
2023-06-17T17:14:05.457Z,100.00
2023-06-17T17:16:33.196Z,100.00
2023-06-17T17:19:00.998Z,100.00
2023-06-17T17:21:28.971Z,100.00
2023-06-17T17:23:58.138Z,100.00
2023-06-17T17:26:26.217Z,100.00
2023-06-17T17:28:54.218Z,100.00
2023-06-17T17:31:21.918Z,100.00
2023-06-17T17:33:51.789Z,100.00
2023-06-17T17:36:20.333Z,100.00
2023-06-17T17:38:48.636Z,100.00
2023-06-17T17:41:17.854Z,100.00
2023-06-17T17:43:45.524Z,100.00
2023-06-17T17:46:13.332Z,100.00
2023-06-17T17:48:41.773Z,100.00
2023-06-17T17:51:09.424Z,100.00
2023-06-17T17:53:37.299Z,100.00
2023-06-17T17:56:05.645Z,100.00
2023-06-17T17:58:34.653Z,100.00
2023-06-17T18:01:04.441Z,100.00
2023-06-17T18:03:32.582Z,100.00
2023-06-17T18:06:02.523Z,100.00
2023-06-17T18:08:30.516Z,100.00
2023-06-17T18:10:58.145Z,100.00
2023-06-17T18:13:27.761Z,100.00
2023-06-17T18:15:57.828Z,100.00
2023-06-17T18:18:25.612Z,100.00
2023-06-17T18:20:53.284Z,100.00
2023-06-17T18:23:21.318Z,100.00
2023-06-17T18:25:49.292Z,100.00
2023-06-17T18:28:17.384Z,100.00
2023-06-17T18:30:45.064Z,100.00
2023-06-17T18:33:14.101Z,100.00
2023-06-17T18:35:41.773Z,100.00
2023-06-17T18:38:09.727Z,100.00
2023-06-17T18:40:37.686Z,100.00
2023-06-17T18:43:05.401Z,100.00
2023-06-17T18:45:33.505Z,100.00
2023-06-17T18:48:03.614Z,100.00
2023-06-17T18:50:32.788Z,100.00
2023-06-17T18:53:00.494Z,100.00
2023-06-17T18:55:30.399Z,100.00
2023-06-17T18:57:58.999Z,100.00
2023-06-17T19:00:27.032Z,100.00
2023-06-17T19:02:54.841Z,100.00
2023-06-17T19:05:22.547Z,100.00
2023-06-17T19:07:51.562Z,100.00
2023-06-17T19:10:19.612Z,100.00
2023-06-17T19:12:47.812Z,100.00
2023-06-17T19:15:15.565Z,100.00
2023-06-17T19:17:43.354Z,100.00
2023-06-17T19:20:12.323Z,100.00
2023-06-17T19:22:40.668Z,100.00
2023-06-17T19:25:10.718Z,100.00
2023-06-17T19:27:38.421Z,100.00
2023-06-17T19:30:07.363Z,100.00
2023-06-17T19:32:35.130Z,100.00
2023-06-17T19:35:04.471Z,100.00
2023-06-17T19:37:32.253Z,100.00
2023-06-17T19:40:00.444Z,100.00
2023-06-17T19:42:29.498Z,100.00
2023-06-17T19:44:59.869Z,100.00
2023-06-17T19:47:28.483Z,100.00
2023-06-17T19:49:57.841Z,100.00
2023-06-17T19:52:25.916Z,100.00
2023-06-17T19:54:55.104Z,100.00
2023-06-17T19:57:22.873Z,100.00
2023-06-17T19:59:52.210Z,100.00
2023-06-17T20:02:20.446Z,100.00
2023-06-17T20:04:48.338Z,100.00
2023-06-17T20:07:16.087Z,100.00
2023-06-17T20:09:43.878Z,100.00
2023-06-17T20:12:12.517Z,100.00
2023-06-17T20:14:40.146Z,100.00
2023-06-17T20:17:10.866Z,100.00
2023-06-17T20:19:38.554Z,100.00
2023-06-17T20:22:06.600Z,100.00
2023-06-17T20:24:34.597Z,100.00
2023-06-17T20:27:02.508Z,100.00
2023-06-17T20:29:30.225Z,100.00
2023-06-17T20:31:57.895Z,100.00
2023-06-17T20:34:26.905Z,100.00
2023-06-17T20:36:54.852Z,100.00
2023-06-17T20:39:22.500Z,100.00
2023-06-17T20:41:50.176Z,100.00
2023-06-17T20:44:18.048Z,100.00
2023-06-17T20:46:46.153Z,100.00
2023-06-17T20:49:13.934Z,100.00
2023-06-17T20:51:42.996Z,100.00
2023-06-17T20:54:10.667Z,100.00
2023-06-17T20:56:38.342Z,100.00
2023-06-17T20:59:06.123Z,100.00
2023-06-17T21:01:33.808Z,100.00
2023-06-17T21:04:01.512Z,100.00
2023-06-17T21:06:29.407Z,100.00
2023-06-17T21:08:58.435Z,100.00
2023-06-17T21:11:26.630Z,100.00
2023-06-17T21:13:54.422Z,100.00
2023-06-17T21:16:22.407Z,100.00
2023-06-17T21:18:50.668Z,100.00
2023-06-17T21:21:18.345Z,100.00
2023-06-17T21:23:46.888Z,100.00
2023-06-17T21:26:16.066Z,100.00
2023-06-17T21:28:43.738Z,100.00
2023-06-17T21:31:11.473Z,100.00
2023-06-17T21:33:39.147Z,100.00
2023-06-17T21:36:06.976Z,100.00
2023-06-17T21:38:34.677Z,100.00
2023-06-17T21:41:03.315Z,100.00
2023-06-17T21:43:33.425Z,100.00
2023-06-17T21:46:01.701Z,100.00
2023-06-17T21:48:29.445Z,100.00
2023-06-17T21:50:57.474Z,100.00
2023-06-17T21:53:25.781Z,100.00
2023-06-17T21:55:53.654Z,100.00
2023-06-17T21:58:21.322Z,100.00
2023-06-17T22:00:51.654Z,100.00
2023-06-17T22:03:23.380Z,100.00
2023-06-17T22:05:51.720Z,100.00
2023-06-17T22:08:24.554Z,100.00
2023-06-17T22:10:55.708Z,100.00
2023-06-17T22:13:23.345Z,100.00
2023-06-17T22:15:52.400Z,100.00
2023-06-17T22:18:20.057Z,100.00
2023-06-17T22:20:50.325Z,100.00
2023-06-17T22:23:18.453Z,100.00
2023-06-17T22:25:46.735Z,100.00
2023-06-17T22:28:14.490Z,100.00
2023-06-17T22:30:42.335Z,100.00
2023-06-17T22:33:11.494Z,100.00
2023-06-17T22:35:39.215Z,100.00
2023-06-17T22:38:06.919Z,100.00
2023-06-17T22:40:34.689Z,100.00
2023-06-17T22:43:02.325Z,100.00
2023-06-17T22:45:29.986Z,100.00
2023-06-17T22:47:57.772Z,100.00
2023-06-17T22:50:27.185Z,100.00
2023-06-17T22:52:54.988Z,100.00
2023-06-17T22:55:24.217Z,100.00
2023-06-17T22:57:52.132Z,100.00
2023-06-17T23:00:20.295Z,100.00
2023-06-17T23:02:48.368Z,100.00
2023-06-17T23:05:16.483Z,100.00
2023-06-17T23:07:45.526Z,100.00
2023-06-17T23:10:13.240Z,100.00
2023-06-17T23:12:40.926Z,100.00
2023-06-17T23:15:09.198Z,100.00
2023-06-17T23:17:36.999Z,100.00
2023-06-17T23:20:05.129Z,100.00
2023-06-17T23:22:34.700Z,100.00
2023-06-17T23:25:07.535Z,100.00
2023-06-17T23:27:36.088Z,100.00
2023-06-17T23:30:03.994Z,100.00
2023-06-17T23:32:31.860Z,100.00
2023-06-17T23:35:00.515Z,100.00
2023-06-17T23:37:28.861Z,100.00
2023-06-17T23:39:56.652Z,100.00
2023-06-17T23:42:25.667Z,100.00
2023-06-17T23:44:53.419Z,100.00
2023-06-17T23:47:21.456Z,100.00
2023-06-17T23:49:49.850Z,100.00
2023-06-17T23:52:17.738Z,100.00
2023-06-17T23:54:45.497Z,100.00
2023-06-17T23:57:13.167Z,100.00
2023-06-17T23:59:42.247Z,100.00
